createdAt,value
2022-09-30T00:00:30.491Z,58.28
2022-09-30T00:01:52.253Z,59.62
2022-09-30T00:02:54.004Z,60.64
2022-09-30T00:03:57.541Z,61.56
2022-09-30T00:04:59.358Z,62.51
2022-09-30T00:06:08.200Z,63.89
2022-09-30T00:07:10.761Z,64.69
2022-09-30T00:08:12.494Z,64.11
2022-09-30T00:09:15.330Z,63.01
2022-09-30T00:10:17.348Z,61.74
2022-09-30T00:11:28.957Z,60.61
2022-09-30T00:12:30.985Z,59.47
2022-09-30T00:13:35.834Z,58.11
2022-09-30T00:14:37.889Z,57.24
2022-09-30T00:15:40.005Z,57.61
2022-09-30T00:16:42.325Z,58.52
2022-09-30T00:17:44.082Z,59.61
2022-09-30T00:18:45.819Z,60.70
2022-09-30T00:19:47.615Z,61.74
2022-09-30T00:20:49.368Z,62.72
2022-09-30T00:21:51.135Z,64.10
2022-09-30T00:22:52.827Z,64.59
2022-09-30T00:23:54.930Z,63.89
2022-09-30T00:24:56.568Z,62.67
2022-09-30T00:26:04.150Z,61.38
2022-09-30T00:27:05.924Z,60.10
2022-09-30T00:28:08.110Z,58.95
2022-09-30T00:29:11.036Z,57.39
2022-09-30T00:30:12.715Z,56.92
2022-09-30T00:31:17.975Z,57.38
2022-09-30T00:32:19.716Z,58.23
2022-09-30T00:33:21.518Z,59.14
2022-09-30T00:34:23.157Z,60.07
2022-09-30T00:35:25.401Z,60.97
2022-09-30T00:36:27.028Z,61.78
2022-09-30T00:37:28.695Z,62.49
2022-09-30T00:38:31.377Z,63.77
2022-09-30T00:39:33.021Z,64.56
2022-09-30T00:40:34.742Z,64.11
2022-09-30T00:41:37.627Z,62.98
2022-09-30T00:42:42.419Z,61.68
2022-09-30T00:43:53.524Z,60.41
2022-09-30T00:45:04.717Z,59.13
2022-09-30T00:46:21.369Z,57.37
2022-09-30T00:47:32.123Z,57.07
2022-09-30T00:48:38.992Z,57.94
2022-09-30T00:49:40.867Z,59.07
2022-09-30T00:50:47.242Z,60.13
2022-09-30T00:51:55.965Z,61.20
2022-09-30T00:53:09.889Z,62.25
2022-09-30T00:54:21.754Z,63.78
2022-09-30T00:55:34.284Z,64.72
2022-09-30T00:56:49.800Z,64.01
2022-09-30T00:57:51.971Z,62.50
2022-09-30T00:59:07.532Z,61.19
2022-09-30T01:00:09.675Z,59.78
2022-09-30T01:01:11.761Z,58.49
2022-09-30T01:02:14.568Z,57.22
2022-09-30T01:03:18.396Z,57.24
2022-09-30T01:04:28.758Z,58.09
2022-09-30T01:05:33.264Z,59.28
2022-09-30T01:06:35.150Z,60.40
2022-09-30T01:07:37.689Z,61.43
2022-09-30T01:08:41.094Z,62.40
2022-09-30T01:09:44.753Z,63.74
2022-09-30T01:10:46.557Z,64.66
2022-09-30T01:11:49.022Z,64.23
2022-09-30T01:12:51.230Z,63.11
2022-09-30T01:13:57.995Z,61.82
2022-09-30T01:15:02.242Z,60.52
2022-09-30T01:16:19.463Z,59.38
2022-09-30T01:17:47.022Z,57.56
2022-09-30T01:19:41.517Z,57.19
2022-09-30T01:21:02.535Z,58.85
2022-09-30T01:22:22.544Z,60.18
2022-09-30T01:24:05.377Z,61.33
2022-09-30T01:25:25.297Z,62.74
2022-09-30T01:26:29.661Z,64.38
2022-09-30T01:28:03.227Z,64.39
2022-09-30T01:29:28.984Z,62.78
2022-09-30T01:30:54.543Z,61.01
2022-09-30T01:32:14.645Z,59.42
2022-09-30T01:33:45.485Z,57.47
2022-09-30T01:35:20.796Z,57.04
2022-09-30T01:36:43.287Z,58.34
2022-09-30T01:38:12.918Z,59.74
2022-09-30T01:39:38.551Z,61.19
2022-09-30T01:40:47.101Z,62.44
2022-09-30T01:42:12.805Z,63.96
2022-09-30T01:43:32.131Z,64.66
2022-09-30T01:45:03.150Z,63.49
2022-09-30T01:46:19.639Z,61.52
2022-09-30T01:47:27.341Z,60.03
2022-09-30T01:48:44.395Z,58.66
2022-09-30T01:49:55.687Z,57.05
2022-09-30T01:51:11.657Z,57.21
2022-09-30T01:52:28.228Z,58.29
2022-09-30T01:53:41.982Z,59.58
2022-09-30T01:55:01.884Z,60.79
2022-09-30T01:56:13.143Z,61.97
2022-09-30T01:57:57.350Z,63.19
2022-09-30T01:59:07.892Z,64.69
2022-09-30T02:00:13.290Z,63.88
2022-09-30T02:01:25.423Z,62.62
2022-09-30T02:02:32.101Z,61.15
2022-09-30T02:03:43.283Z,59.96
2022-09-30T02:04:59.220Z,58.59
2022-09-30T02:06:07.439Z,57.18
2022-09-30T02:07:25.102Z,57.47
2022-09-30T02:08:32.159Z,58.68
2022-09-30T02:09:40.994Z,59.96
2022-09-30T02:10:53.208Z,61.27
2022-09-30T02:12:01.416Z,62.61
2022-09-30T02:13:35.777Z,64.35
2022-09-30T02:14:43.876Z,64.86
2022-09-30T02:16:12.916Z,63.85
2022-09-30T02:17:28.977Z,62.14
2022-09-30T02:18:43.446Z,60.78
2022-09-30T02:20:10.904Z,59.68
2022-09-30T02:21:19.810Z,58.03
2022-09-30T02:22:44.955Z,57.32
2022-09-30T02:23:50.533Z,58.15
2022-09-30T02:25:01.607Z,59.19
2022-09-30T02:26:13.283Z,60.36
2022-09-30T02:27:21.508Z,61.50
2022-09-30T02:28:29.234Z,62.50
2022-09-30T02:29:42.159Z,63.94
2022-09-30T02:30:52.434Z,64.51
2022-09-30T02:32:03.801Z,63.59
2022-09-30T02:33:16.766Z,62.09
2022-09-30T02:34:41.837Z,60.61
2022-09-30T02:35:59.376Z,59.05
2022-09-30T02:37:08.717Z,57.33
2022-09-30T02:38:23.802Z,57.20
2022-09-30T02:39:34.232Z,58.08
2022-09-30T02:40:41.250Z,59.12
2022-09-30T02:41:53.123Z,60.15
2022-09-30T02:42:55.742Z,61.20
2022-09-30T02:44:00.451Z,62.11
2022-09-30T02:45:09.056Z,63.27
2022-09-30T02:46:29.044Z,64.51
2022-09-30T02:47:52.632Z,64.06
2022-09-30T02:49:18.259Z,62.43
2022-09-30T02:50:36.637Z,60.72
2022-09-30T02:52:29.178Z,59.29
2022-09-30T02:53:43.752Z,57.00
2022-09-30T02:55:27.505Z,57.31
2022-09-30T02:56:59.997Z,58.91
2022-09-30T02:58:19.191Z,60.44
2022-09-30T02:59:23.596Z,61.66
2022-09-30T03:00:26.256Z,62.59
2022-09-30T03:01:27.949Z,63.95
2022-09-30T03:02:29.732Z,64.48
2022-09-30T03:03:42.523Z,63.82
2022-09-30T03:04:46.812Z,62.35
2022-09-30T03:05:52.004Z,61.01
2022-09-30T03:06:55.365Z,59.78
2022-09-30T03:07:57.778Z,58.45
2022-09-30T03:08:59.496Z,57.17
2022-09-30T03:10:01.284Z,57.17
2022-09-30T03:11:04.627Z,57.94
2022-09-30T03:12:21.745Z,59.00
2022-09-30T03:13:48.335Z,60.29
2022-09-30T03:15:13.062Z,61.62
2022-09-30T03:16:45.169Z,62.97
2022-09-30T03:18:15.364Z,64.58
2022-09-30T03:19:42.404Z,63.68
2022-09-30T03:20:54.218Z,61.83
2022-09-30T03:22:12.194Z,60.35
2022-09-30T03:23:16.757Z,58.88
2022-09-30T03:24:39.289Z,57.23
2022-09-30T03:26:14.878Z,56.93
2022-09-30T03:27:46.354Z,58.30
2022-09-30T03:29:07.360Z,59.82
2022-09-30T03:30:24.304Z,61.15
2022-09-30T03:31:35.318Z,62.32
2022-09-30T03:33:08.311Z,63.78
2022-09-30T03:34:27.700Z,64.85
2022-09-30T03:35:50.310Z,63.80
2022-09-30T03:37:08.747Z,62.21
2022-09-30T03:38:24.483Z,60.77
2022-09-30T03:39:34.164Z,59.64
2022-09-30T03:41:01.071Z,58.33
2022-09-30T03:42:22.002Z,57.33
2022-09-30T03:43:43.874Z,58.23
2022-09-30T03:45:00.464Z,59.70
2022-09-30T03:46:33.866Z,61.17
2022-09-30T03:47:42.701Z,62.91
2022-09-30T03:48:50.650Z,64.58
2022-09-30T03:50:00.419Z,64.84
2022-09-30T03:51:04.170Z,63.87
2022-09-30T03:52:10.192Z,62.61
2022-09-30T03:53:13.721Z,61.30
2022-09-30T03:54:16.562Z,60.16
2022-09-30T03:55:19.632Z,59.12
2022-09-30T03:56:30.286Z,57.67
2022-09-30T03:57:31.936Z,57.24
2022-09-30T03:58:34.849Z,57.87
2022-09-30T03:59:36.653Z,58.90
2022-09-30T04:00:46.324Z,59.98
2022-09-30T04:01:48.007Z,61.12
2022-09-30T04:02:50.690Z,62.07
2022-09-30T04:03:54.878Z,63.24
2022-09-30T04:04:56.634Z,64.54
2022-09-30T04:05:58.310Z,64.59
2022-09-30T04:07:00.357Z,63.73
2022-09-30T04:08:02.052Z,62.54
2022-09-30T04:09:04.026Z,61.39
2022-09-30T04:10:06.116Z,60.40
2022-09-30T04:11:07.953Z,59.52
2022-09-30T04:12:10.084Z,58.32
2022-09-30T04:13:12.832Z,57.37
2022-09-30T04:14:14.752Z,57.63
2022-09-30T04:15:16.420Z,58.48
2022-09-30T04:16:18.439Z,59.57
2022-09-30T04:17:20.244Z,60.73
2022-09-30T04:18:21.890Z,61.82
2022-09-30T04:19:23.853Z,63.00
2022-09-30T04:20:26.051Z,64.56
2022-09-30T04:21:30.977Z,64.97
2022-09-30T04:22:32.682Z,64.27
2022-09-30T04:23:39.586Z,63.15
2022-09-30T04:24:41.757Z,61.92
2022-09-30T04:25:43.550Z,60.86
2022-09-30T04:26:45.204Z,59.96
2022-09-30T04:27:47.130Z,59.07
2022-09-30T04:28:49.008Z,57.80
2022-09-30T04:29:50.673Z,57.52
2022-09-30T04:30:52.465Z,58.18
2022-09-30T04:31:54.509Z,59.18
2022-09-30T04:32:56.208Z,60.28
2022-09-30T04:33:57.839Z,61.34
2022-09-30T04:34:59.495Z,62.32
2022-09-30T04:36:01.860Z,63.63
2022-09-30T04:37:07.339Z,64.63
2022-09-30T04:38:11.750Z,64.24
2022-09-30T04:39:13.415Z,63.18
2022-09-30T04:40:16.466Z,61.97
2022-09-30T04:41:18.242Z,60.83
2022-09-30T04:42:19.940Z,59.84
2022-09-30T04:43:23.574Z,58.75
2022-09-30T04:44:25.220Z,57.46
2022-09-30T04:45:27.124Z,57.39
2022-09-30T04:46:28.840Z,58.08
2022-09-30T04:47:31.324Z,59.04
2022-09-30T04:48:32.957Z,60.07
2022-09-30T04:49:34.608Z,61.06
2022-09-30T04:50:36.272Z,62.04
2022-09-30T04:51:38.492Z,63.20
2022-09-30T04:52:43.247Z,64.47
2022-09-30T04:53:46.312Z,64.46
2022-09-30T04:54:48.141Z,63.48
2022-09-30T04:55:49.952Z,62.22
2022-09-30T04:56:51.608Z,61.03
2022-09-30T04:57:53.238Z,59.93
2022-09-30T04:58:54.878Z,58.79
2022-09-30T04:59:56.533Z,57.50
2022-09-30T05:01:10.177Z,57.37
2022-09-30T05:02:13.729Z,58.24
2022-09-30T05:03:15.460Z,59.27
2022-09-30T05:04:17.090Z,60.26
2022-09-30T05:05:20.088Z,61.21
2022-09-30T05:06:21.771Z,62.15
2022-09-30T05:07:23.541Z,63.28
2022-09-30T05:08:25.251Z,64.44
2022-09-30T05:09:26.960Z,64.34
2022-09-30T05:10:30.144Z,63.37
2022-09-30T05:11:31.904Z,62.11
2022-09-30T05:12:34.399Z,60.90
2022-09-30T05:13:40.146Z,59.84
2022-09-30T05:14:41.838Z,58.58
2022-09-30T05:15:43.495Z,57.38
2022-09-30T05:16:45.117Z,57.40
2022-09-30T05:17:49.648Z,58.15
2022-09-30T05:18:51.278Z,59.17
2022-09-30T05:19:52.934Z,60.17
2022-09-30T05:20:57.378Z,61.20
2022-09-30T05:21:59.024Z,62.19
2022-09-30T05:23:00.722Z,63.32
2022-09-30T05:24:02.858Z,64.46
2022-09-30T05:25:05.043Z,64.34
2022-09-30T05:26:11.716Z,63.39
2022-09-30T05:27:14.828Z,62.05
2022-09-30T05:28:16.659Z,60.88
2022-09-30T05:29:18.337Z,59.85
2022-09-30T05:30:19.983Z,58.79
2022-09-30T05:31:21.771Z,57.58
2022-09-30T05:32:24.689Z,57.54
2022-09-30T05:33:29.673Z,58.31
2022-09-30T05:34:31.541Z,59.36
2022-09-30T05:35:33.177Z,60.45
2022-09-30T05:36:34.825Z,61.47
2022-09-30T05:37:36.479Z,62.42
2022-09-30T05:38:38.126Z,63.78
2022-09-30T05:39:39.872Z,64.64
2022-09-30T05:40:41.585Z,64.23
2022-09-30T05:41:43.392Z,63.16
2022-09-30T05:42:47.081Z,61.86
2022-09-30T05:43:49.702Z,60.68
2022-09-30T05:44:51.785Z,59.71
2022-09-30T05:45:57.433Z,58.58
2022-09-30T05:46:59.683Z,57.40
2022-09-30T05:48:02.198Z,57.54
2022-09-30T05:49:03.900Z,58.38
2022-09-30T05:50:06.240Z,59.41
2022-09-30T05:51:09.440Z,60.44
2022-09-30T05:52:11.790Z,61.50
2022-09-30T05:53:13.452Z,62.52
2022-09-30T05:54:15.124Z,63.88
2022-09-30T05:55:18.993Z,64.62
2022-09-30T05:56:20.702Z,64.06
2022-09-30T05:57:22.369Z,62.91
2022-09-30T05:58:24.608Z,61.64
2022-09-30T05:59:26.306Z,60.50
2022-09-30T06:00:27.940Z,59.53
2022-09-30T06:01:29.716Z,58.22
2022-09-30T06:02:31.502Z,57.35
2022-09-30T06:03:33.308Z,57.66
2022-09-30T06:04:34.952Z,58.54
2022-09-30T06:05:37.611Z,59.50
2022-09-30T06:06:39.233Z,60.53
2022-09-30T06:07:40.870Z,61.53
2022-09-30T06:08:43.781Z,62.49
2022-09-30T06:09:46.399Z,63.84
2022-09-30T06:10:48.121Z,64.51
2022-09-30T06:11:49.766Z,63.97
2022-09-30T06:12:52.207Z,62.84
2022-09-30T06:13:54.047Z,61.56
2022-09-30T06:14:55.956Z,60.43
2022-09-30T06:16:00.165Z,59.46
2022-09-30T06:17:02.147Z,58.12
2022-09-30T06:18:03.912Z,57.38
2022-09-30T06:19:06.997Z,57.73
2022-09-30T06:20:10.203Z,58.59
2022-09-30T06:21:15.348Z,59.59
2022-09-30T06:22:18.100Z,60.66
2022-09-30T06:23:20.347Z,61.67
2022-09-30T06:24:21.980Z,62.66
2022-09-30T06:25:23.689Z,64.04
2022-09-30T06:26:25.376Z,64.56
2022-09-30T06:27:28.218Z,63.99
2022-09-30T06:28:30.118Z,62.88
2022-09-30T06:29:31.792Z,61.72
2022-09-30T06:30:35.374Z,60.58
2022-09-30T06:31:37.664Z,59.59
2022-09-30T06:32:39.408Z,58.38
2022-09-30T06:33:42.508Z,57.46
2022-09-30T06:34:44.799Z,57.66
2022-09-30T06:35:47.535Z,58.54
2022-09-30T06:36:49.356Z,59.54
2022-09-30T06:37:52.346Z,60.54
2022-09-30T06:38:54.394Z,61.48
2022-09-30T06:39:56.568Z,62.33
2022-09-30T06:41:01.527Z,63.47
2022-09-30T06:42:03.679Z,64.37
2022-09-30T06:43:07.316Z,63.89
2022-09-30T06:44:09.792Z,62.89
2022-09-30T06:45:23.208Z,61.72
2022-09-30T06:46:31.428Z,60.33
2022-09-30T06:47:33.569Z,59.43
2022-09-30T06:48:38.536Z,58.19
2022-09-30T06:49:49.294Z,57.41
2022-09-30T06:51:01.226Z,58.00
2022-09-30T06:52:04.036Z,59.07
2022-09-30T06:53:08.444Z,60.10
2022-09-30T06:54:10.577Z,61.16
2022-09-30T06:55:12.221Z,62.05
2022-09-30T06:56:14.970Z,63.00
2022-09-30T06:57:22.416Z,64.32
2022-09-30T06:58:24.567Z,64.49
2022-09-30T06:59:27.178Z,63.63
2022-09-30T07:00:29.101Z,62.54
2022-09-30T07:01:30.954Z,61.41
2022-09-30T07:02:34.441Z,60.41
2022-09-30T07:03:36.234Z,59.56
2022-09-30T07:04:37.880Z,58.37
2022-09-30T07:05:39.516Z,57.44
2022-09-30T07:06:42.296Z,57.66
2022-09-30T07:07:44.102Z,58.57
2022-09-30T07:08:45.755Z,59.55
2022-09-30T07:09:47.709Z,60.46
2022-09-30T07:10:49.387Z,61.38
2022-09-30T07:11:51.265Z,62.32
2022-09-30T07:12:54.204Z,63.62
2022-09-30T07:13:55.914Z,64.57
2022-09-30T07:14:58.645Z,64.12
2022-09-30T07:16:00.545Z,62.96
2022-09-30T07:17:04.240Z,61.78
2022-09-30T07:18:06.759Z,60.66
2022-09-30T07:19:10.241Z,59.70
2022-09-30T07:20:11.952Z,58.51
2022-09-30T07:21:16.247Z,57.37
2022-09-30T07:22:32.252Z,57.40
2022-09-30T07:23:33.881Z,58.39
2022-09-30T07:24:35.516Z,59.45
2022-09-30T07:25:37.158Z,60.36
2022-09-30T07:26:40.209Z,61.14
2022-09-30T07:27:41.978Z,61.93
2022-09-30T07:28:45.127Z,62.63
2022-09-30T07:31:32.081Z,64.12
2022-09-30T07:32:34.727Z,62.85
2022-09-30T07:33:36.478Z,61.59
2022-09-30T07:34:43.116Z,60.41
2022-09-30T07:35:56.313Z,59.35
2022-09-30T07:36:57.981Z,57.78
2022-09-30T07:38:00.661Z,57.13
2022-09-30T07:39:05.816Z,57.45
2022-09-30T07:40:09.518Z,58.37
2022-09-30T07:41:15.038Z,59.36
2022-09-30T07:42:22.949Z,60.39
2022-09-30T07:43:34.962Z,61.40
2022-09-30T07:44:41.860Z,62.31
2022-09-30T07:45:43.650Z,63.52
2022-09-30T07:46:45.672Z,64.18
2022-09-30T07:47:52.548Z,63.54
2022-09-30T07:49:00.240Z,62.26
2022-09-30T07:50:02.067Z,60.80
2022-09-30T07:51:03.912Z,59.59
2022-09-30T07:52:05.727Z,58.05
2022-09-30T07:53:07.380Z,57.08
2022-09-30T07:54:14.438Z,57.22
2022-09-30T07:55:16.113Z,57.94
2022-09-30T07:56:19.184Z,58.78
2022-09-30T07:57:21.627Z,59.84
2022-09-30T07:58:23.744Z,60.64
2022-09-30T07:59:27.476Z,61.35
2022-09-30T08:00:42.221Z,62.15
2022-09-30T08:01:46.034Z,63.41
2022-09-30T08:02:48.267Z,64.23
2022-09-30T08:03:54.146Z,63.65
2022-09-30T08:04:55.801Z,62.36
2022-09-30T08:06:04.078Z,61.21
2022-09-30T08:07:05.830Z,59.95
2022-09-30T08:08:07.600Z,58.79
2022-09-30T08:09:09.740Z,57.25
2022-09-30T08:10:11.516Z,56.69
2022-09-30T08:11:14.846Z,57.16
2022-09-30T08:12:16.485Z,58.05
2022-09-30T08:13:19.948Z,59.01
2022-09-30T08:14:25.936Z,59.84
2022-09-30T08:15:28.006Z,60.68
2022-09-30T08:16:29.741Z,61.47
2022-09-30T08:17:31.497Z,62.29
2022-09-30T08:18:33.225Z,63.28
2022-09-30T08:19:35.288Z,64.16
2022-09-30T08:20:36.947Z,63.66
2022-09-30T08:21:38.597Z,62.48
2022-09-30T08:22:40.198Z,60.94
2022-09-30T08:23:41.827Z,59.59
2022-09-30T08:24:43.424Z,58.02
2022-09-30T08:25:45.182Z,56.84
2022-09-30T08:26:47.234Z,56.73
2022-09-30T08:27:49.379Z,57.36
2022-09-30T08:28:51.336Z,58.16
2022-09-30T08:29:55.444Z,58.95
2022-09-30T08:31:10.647Z,59.83
2022-09-30T08:32:12.523Z,60.68
2022-09-30T08:33:14.169Z,61.29
2022-09-30T08:34:15.893Z,61.88
2022-09-30T08:35:17.671Z,62.54
2022-09-30T08:36:23.901Z,63.51
2022-09-30T08:37:25.549Z,63.77
2022-09-30T08:38:27.207Z,62.94
2022-09-30T08:39:28.925Z,61.56
2022-09-30T08:40:41.513Z,60.20
2022-09-30T08:42:39.432Z,58.49
2022-09-30T08:44:19.606Z,56.25
2022-09-30T08:45:37.377Z,56.92
2022-09-30T08:47:14.515Z,57.93
2022-09-30T08:48:35.043Z,59.24
2022-09-30T08:49:56.514Z,60.28
2022-09-30T08:51:01.881Z,61.29
2022-09-30T08:52:55.710Z,61.80
2022-09-30T08:54:02.748Z,62.13
2022-09-30T08:55:07.112Z,62.79
2022-09-30T08:56:20.722Z,64.05
2022-09-30T08:57:25.144Z,63.73
2022-09-30T08:58:31.259Z,62.47
2022-09-30T08:59:45.683Z,61.06
2022-09-30T09:00:54.891Z,59.53
2022-09-30T09:02:18.041Z,57.67
2022-09-30T09:03:23.042Z,56.45
2022-09-30T09:04:24.976Z,56.68
2022-09-30T09:05:40.064Z,57.48
2022-09-30T09:06:47.539Z,58.50
2022-09-30T09:08:06.457Z,59.42
2022-09-30T09:09:35.354Z,60.24
2022-09-30T09:10:48.408Z,61.08
2022-09-30T09:12:11.354Z,61.76
2022-09-30T09:13:28.633Z,62.51
2022-09-30T09:14:32.707Z,63.55
2022-09-30T09:16:07.540Z,63.53
2022-09-30T09:18:04.303Z,61.86
2022-09-30T09:19:15.975Z,59.35
2022-09-30T09:20:22.419Z,57.24
2022-09-30T09:21:48.627Z,56.27
2022-09-30T09:22:52.265Z,56.70
2022-09-30T09:24:00.733Z,57.46
2022-09-30T09:25:03.834Z,58.14
2022-09-30T09:26:06.076Z,59.02
2022-09-30T09:27:20.183Z,59.67
2022-09-30T09:28:51.789Z,60.16
2022-09-30T09:30:01.823Z,60.63
2022-09-30T09:31:04.955Z,61.23
2022-09-30T09:32:14.551Z,61.68
2022-09-30T09:33:23.089Z,62.00
2022-09-30T09:34:26.738Z,62.15
2022-09-30T09:36:05.362Z,62.83
2022-09-30T09:37:46.442Z,64.04
2022-09-30T09:39:11.399Z,62.32
2022-09-30T09:40:25.249Z,60.55
2022-09-30T09:41:51.582Z,59.28
2022-09-30T09:43:12.315Z,57.02
2022-09-30T09:44:23.407Z,56.40
2022-09-30T09:45:54.487Z,56.96
2022-09-30T09:47:05.211Z,57.75
2022-09-30T09:48:12.785Z,58.41
2022-09-30T09:49:17.026Z,59.35
2022-09-30T09:50:35.158Z,59.90
2022-09-30T09:51:47.211Z,60.10
2022-09-30T09:53:13.441Z,60.23
2022-09-30T09:54:21.632Z,60.42
2022-09-30T09:55:24.066Z,60.81
2022-09-30T09:56:32.481Z,60.81
2022-09-30T09:57:34.325Z,61.18
2022-09-30T09:58:35.946Z,61.37
2022-09-30T09:59:54.328Z,61.39
2022-09-30T10:01:32.662Z,61.50
2022-09-30T10:02:34.554Z,61.73
2022-09-30T10:03:36.227Z,61.77
2022-09-30T10:04:50.968Z,61.83
2022-09-30T10:06:03.956Z,61.97
2022-09-30T10:07:15.314Z,62.35
2022-09-30T10:08:22.814Z,63.42
2022-09-30T10:09:37.423Z,63.85
2022-09-30T10:10:59.238Z,62.36
2022-09-30T10:12:06.875Z,60.07
2022-09-30T10:13:21.560Z,57.71
2022-09-30T10:14:23.292Z,55.65
2022-09-30T10:15:26.480Z,55.36
2022-09-30T10:16:35.359Z,55.62
2022-09-30T10:17:38.364Z,56.02
2022-09-30T10:18:40.876Z,56.41
2022-09-30T10:19:51.803Z,56.78
2022-09-30T10:21:00.390Z,57.33
2022-09-30T10:22:07.879Z,57.62
2022-09-30T10:23:20.359Z,58.12
2022-09-30T10:24:31.596Z,58.67
2022-09-30T10:25:33.291Z,59.20
2022-09-30T10:26:47.751Z,59.58
2022-09-30T10:28:00.411Z,59.80
2022-09-30T10:29:06.537Z,59.67
2022-09-30T10:30:08.791Z,60.19
2022-09-30T10:31:29.361Z,60.48
2022-09-30T10:32:32.822Z,60.62
2022-09-30T10:33:43.972Z,60.64
2022-09-30T10:34:46.055Z,60.62
2022-09-30T10:35:59.169Z,60.73
2022-09-30T10:37:17.217Z,60.69
2022-09-30T10:38:19.173Z,60.78
2022-09-30T10:39:32.517Z,60.92
2022-09-30T10:40:34.320Z,61.28
2022-09-30T10:41:38.615Z,61.61
2022-09-30T10:42:46.089Z,61.93
2022-09-30T10:43:53.246Z,62.12
2022-09-30T10:45:19.930Z,62.12
2022-09-30T10:46:28.759Z,61.83
2022-09-30T10:47:36.430Z,61.92
2022-09-30T10:48:41.365Z,61.96
2022-09-30T10:49:53.367Z,61.92
2022-09-30T10:50:57.270Z,61.73
2022-09-30T10:52:01.384Z,61.77
2022-09-30T10:53:25.755Z,61.92
2022-09-30T10:54:49.911Z,62.11
2022-09-30T10:55:54.138Z,62.40
2022-09-30T10:56:55.751Z,62.59
2022-09-30T10:58:21.331Z,63.44
2022-09-30T10:59:35.230Z,63.32
2022-09-30T11:00:37.554Z,61.70
2022-09-30T11:01:52.612Z,59.83
2022-09-30T11:03:20.589Z,56.80
2022-09-30T11:04:26.268Z,54.85
2022-09-30T11:05:34.268Z,54.95
2022-09-30T11:06:40.610Z,55.65
2022-09-30T11:07:54.715Z,56.32
2022-09-30T11:09:12.760Z,56.98
2022-09-30T11:10:32.965Z,57.52
2022-09-30T11:11:44.136Z,58.17
2022-09-30T11:13:00.094Z,58.82
2022-09-30T11:14:39.379Z,59.29
2022-09-30T11:16:01.698Z,59.82
2022-09-30T11:17:18.043Z,60.09
2022-09-30T11:18:35.004Z,60.39
2022-09-30T11:19:43.119Z,60.84
2022-09-30T11:21:10.591Z,61.13
2022-09-30T11:22:34.008Z,61.59
2022-09-30T11:23:45.458Z,61.46
2022-09-30T11:24:52.845Z,61.52
2022-09-30T11:26:12.482Z,61.52
2022-09-30T11:27:20.094Z,61.67
2022-09-30T11:28:32.542Z,61.93
2022-09-30T11:29:40.247Z,61.77
2022-09-30T11:30:58.141Z,61.70
2022-09-30T11:32:23.201Z,61.62
2022-09-30T11:33:43.608Z,60.91
2022-09-30T11:34:59.695Z,60.66
2022-09-30T11:36:11.714Z,60.91
2022-09-30T11:37:33.868Z,60.89
2022-09-30T11:39:14.239Z,61.14
2022-09-30T11:40:40.526Z,61.35
2022-09-30T11:42:11.615Z,61.66
2022-09-30T11:43:21.608Z,61.90
2022-09-30T11:44:36.117Z,61.75
2022-09-30T11:46:07.984Z,61.71
2022-09-30T11:47:23.314Z,61.96
2022-09-30T11:48:46.430Z,61.95
2022-09-30T11:50:00.166Z,62.15
2022-09-30T11:51:11.287Z,62.57
2022-09-30T11:52:46.617Z,63.67
2022-09-30T11:54:02.063Z,63.59
2022-09-30T11:55:33.042Z,61.77
2022-09-30T11:56:46.367Z,58.85
2022-09-30T11:58:22.461Z,56.35
2022-09-30T11:59:42.070Z,55.06
2022-09-30T12:00:52.844Z,55.36
2022-09-30T12:02:01.205Z,56.13
2022-09-30T12:03:21.704Z,56.56
2022-09-30T12:04:42.888Z,56.91
2022-09-30T12:05:54.624Z,56.91
2022-09-30T12:07:06.986Z,57.24
2022-09-30T12:08:21.099Z,57.72
2022-09-30T12:09:27.984Z,57.97
2022-09-30T12:10:37.387Z,58.58
2022-09-30T12:11:49.683Z,58.92
2022-09-30T12:13:20.599Z,59.30
2022-09-30T12:14:42.454Z,59.23
2022-09-30T12:15:48.446Z,59.12
2022-09-30T12:16:51.642Z,58.93
2022-09-30T12:18:05.279Z,58.86
2022-09-30T12:19:35.165Z,58.90
2022-09-30T12:20:51.613Z,58.93
2022-09-30T12:22:00.495Z,58.56
2022-09-30T12:23:18.256Z,58.51
2022-09-30T12:24:29.037Z,59.03
2022-09-30T12:25:43.930Z,59.37
2022-09-30T12:26:47.266Z,59.53
2022-09-30T12:28:24.876Z,59.77
2022-09-30T12:29:56.494Z,59.51
2022-09-30T12:31:23.809Z,59.13
2022-09-30T12:33:00.102Z,59.01
2022-09-30T12:34:39.067Z,59.00
2022-09-30T12:35:56.390Z,59.08
2022-09-30T12:37:10.376Z,59.01
2022-09-30T12:38:46.179Z,58.98
2022-09-30T12:40:22.527Z,58.77
2022-09-30T12:41:46.032Z,59.01
2022-09-30T12:43:06.306Z,59.34
2022-09-30T12:44:42.095Z,59.67
2022-09-30T12:46:24.661Z,60.18
2022-09-30T12:47:31.174Z,60.43
2022-09-30T12:48:44.327Z,60.51
2022-09-30T12:49:49.434Z,60.56
2022-09-30T12:50:58.004Z,60.54
2022-09-30T12:52:07.122Z,60.55
2022-09-30T12:53:17.837Z,60.19
2022-09-30T12:54:33.386Z,60.56
2022-09-30T12:55:43.034Z,60.82
2022-09-30T12:56:53.572Z,61.03
2022-09-30T12:57:57.019Z,61.06
2022-09-30T12:59:00.636Z,61.09
2022-09-30T13:00:08.460Z,61.17
2022-09-30T13:01:27.280Z,61.11
2022-09-30T13:02:40.158Z,61.25
2022-09-30T13:03:49.125Z,61.21
2022-09-30T13:04:50.858Z,61.09
2022-09-30T13:06:06.435Z,60.97
2022-09-30T13:07:15.932Z,60.98
2022-09-30T13:08:25.046Z,60.88
2022-09-30T13:09:33.901Z,61.01
2022-09-30T13:10:38.235Z,60.79
2022-09-30T13:11:41.853Z,60.84
2022-09-30T13:12:46.786Z,60.79
2022-09-30T13:14:03.746Z,60.66
2022-09-30T13:15:42.370Z,60.45
2022-09-30T13:17:08.757Z,60.08
2022-09-30T13:18:26.771Z,60.01
2022-09-30T13:19:36.363Z,59.56
2022-09-30T13:20:56.364Z,59.40
2022-09-30T13:22:29.719Z,59.32
2022-09-30T13:23:48.077Z,59.21
2022-09-30T13:25:04.726Z,59.01
2022-09-30T13:26:41.546Z,58.80
2022-09-30T13:28:14.433Z,58.76
2022-09-30T13:29:19.697Z,59.10
2022-09-30T13:30:21.447Z,59.07
2022-09-30T13:31:26.153Z,59.11
2022-09-30T13:32:39.089Z,59.30
2022-09-30T13:34:06.853Z,59.54
2022-09-30T13:35:33.356Z,59.72
2022-09-30T13:36:44.290Z,59.74
2022-09-30T13:38:28.638Z,59.92
2022-09-30T13:39:54.475Z,60.51
2022-09-30T13:41:14.354Z,60.58
2022-09-30T13:42:29.870Z,60.45
2022-09-30T13:43:56.487Z,60.52
2022-09-30T13:45:31.238Z,60.38
2022-09-30T13:46:43.490Z,60.40
2022-09-30T13:48:11.093Z,60.38
2022-09-30T13:49:22.794Z,60.35
2022-09-30T13:50:36.816Z,60.66
2022-09-30T13:51:41.610Z,60.67
2022-09-30T13:52:51.104Z,60.96
2022-09-30T13:53:58.455Z,61.14
2022-09-30T13:55:09.619Z,61.21
2022-09-30T13:56:29.846Z,61.04
2022-09-30T13:57:49.306Z,61.05
2022-09-30T13:59:23.150Z,61.15
2022-09-30T14:00:26.461Z,61.39
2022-09-30T14:02:03.092Z,61.30
2022-09-30T14:03:10.709Z,61.38
2022-09-30T14:04:41.528Z,61.52
2022-09-30T14:06:00.483Z,61.60
2022-09-30T14:07:31.500Z,61.63
2022-09-30T14:08:55.836Z,61.74
2022-09-30T14:10:34.421Z,62.02
2022-09-30T14:11:59.347Z,62.06
2022-09-30T14:13:32.293Z,61.96
2022-09-30T14:15:09.019Z,62.26
2022-09-30T14:16:45.936Z,62.29
2022-09-30T14:18:09.271Z,62.77
2022-09-30T14:19:37.459Z,64.20
2022-09-30T14:21:04.141Z,63.39
2022-09-30T14:22:10.336Z,61.32
2022-09-30T14:23:18.465Z,59.51
2022-09-30T14:24:27.086Z,57.01
2022-09-30T14:25:41.800Z,55.55
2022-09-30T14:27:15.839Z,55.26
2022-09-30T14:28:45.645Z,55.35
2022-09-30T14:30:13.621Z,55.89
2022-09-30T14:31:15.749Z,56.63
2022-09-30T14:32:21.517Z,57.02
2022-09-30T14:33:28.309Z,57.34
2022-09-30T14:34:32.376Z,57.83
2022-09-30T14:35:36.717Z,58.27
2022-09-30T14:36:40.022Z,58.67
2022-09-30T14:37:50.945Z,58.86
2022-09-30T14:38:58.382Z,59.21
2022-09-30T14:40:01.334Z,59.80
2022-09-30T14:41:17.182Z,60.18
2022-09-30T14:42:41.210Z,60.45
2022-09-30T14:43:46.666Z,60.46
2022-09-30T14:44:49.256Z,60.50
2022-09-30T14:46:02.158Z,60.52
2022-09-30T14:47:23.693Z,60.55
2022-09-30T14:48:30.747Z,60.65
2022-09-30T14:49:36.146Z,60.89
2022-09-30T14:50:52.218Z,61.21
2022-09-30T14:51:54.551Z,61.50
2022-09-30T14:52:58.654Z,61.63
2022-09-30T14:54:01.974Z,61.93
2022-09-30T14:55:04.714Z,62.32
2022-09-30T14:56:22.017Z,62.37
2022-09-30T14:57:24.136Z,62.37
2022-09-30T14:58:29.204Z,62.98
2022-09-30T14:59:34.678Z,63.78
2022-09-30T15:00:37.941Z,63.03
2022-09-30T15:01:41.478Z,61.71
2022-09-30T15:02:46.815Z,60.22
2022-09-30T15:03:55.586Z,58.18
2022-09-30T15:05:01.343Z,55.57
2022-09-30T15:06:06.888Z,54.80
2022-09-30T15:07:12.799Z,54.83
2022-09-30T15:08:21.292Z,55.28